Terminal Aerodrome Forecast
Issued by NWS

Home | Current Version | Previous Version | Text Only | Print | Product List | Glossary On
Versions: 1 2 3 4 5 6 7 8 9 10 11 12 13 14 15 16 17 18 19 20
000
FTUS43 KMPX 010800 AAB
TAFRNH
TAF AMD
KRNH 010838Z 0109/0206 13010KT P6SM SCT015 BKN090
      TEMPO 0109/0111 BKN015
     FM011100 13010KT P6SM OVC014
     FM011600 14010KT 6SM -RA BR SCT007 OVC015
     FM012100 15008KT 6SM -SHRA BR SCT006 OVC010
     FM020000 17003KT 4SM BR OVC008=

USA.gov is the U.S. government's official web portal to all federal, state and local government web resources and services.